sensor_id;sensor_type;location;lat;lon;timestamp;pressure;altitude;pressure_sealevel;temperature;humidity
57050;BME280;42935;50.966;16.992;2023-02-10T00:03:10;103219.18;;;-4.13;100.00
57050;BME280;42935;50.966;16.992;2023-02-10T00:06:32;103230.97;;;-4.16;100.00
57050;BME280;42935;50.966;16.992;2023-02-10T00:09:42;103229.42;;;-4.16;100.00
57050;BME280;42935;50.966;16.992;2023-02-10T00:12:52;103221.45;;;-4.23;100.00
57050;BME280;42935;50.966;16.992;2023-02-10T00:16:12;103226.88;;;-4.32;100.00
57050;BME280;42935;50.966;16.992;2023-02-10T00:19:28;103246.86;;;-4.43;100.00
57050;BME280;42935;50.966;16.992;2023-02-10T00:22:45;103236.94;;;-4.50;100.00
57050;BME280;42935;50.966;16.992;2023-02-10T00:26:06;103243.70;;;-4.56;100.00
57050;BME280;42935;50.966;16.992;2023-02-10T00:29:25;103219.81;;;-4.60;100.00
57050;BME280;42935;50.966;16.992;2023-02-10T00:32:35;103239.69;;;-4.49;100.00
57050;BME280;42935;50.966;16.992;2023-02-10T00:35:48;103226.69;;;-4.52;100.00
57050;BME280;42935;50.966;16.992;2023-02-10T00:39:11;103225.02;;;-4.52;100.00
57050;BME280;42935;50.966;16.992;2023-02-10T00:42:21;103223.76;;;-4.81;100.00
57050;BME280;42935;50.966;16.992;2023-02-10T00:45:38;103236.54;;;-4.79;100.00
57050;BME280;42935;50.966;16.992;2023-02-10T00:48:58;103231.79;;;-4.76;100.00
57050;BME280;42935;50.966;16.992;2023-02-10T00:52:07;103246.70;;;-4.71;100.00
57050;BME280;42935;50.966;16.992;2023-02-10T00:55:21;103253.42;;;-4.95;100.00
57050;BME280;42935;50.966;16.992;2023-02-10T00:58:36;103241.08;;;-5.02;100.00
57050;BME280;42935;50.966;16.992;2023-02-10T01:01:46;103247.48;;;-4.97;100.00
57050;BME280;42935;50.966;16.992;2023-02-10T01:04:55;103259.45;;;-4.83;100.00
57050;BME280;42935;50.966;16.992;2023-02-10T01:08:05;103243.45;;;-4.90;100.00
57050;BME280;42935;50.966;16.992;2023-02-10T01:11:15;103241.73;;;-4.96;100.00
57050;BME280;42935;50.966;16.992;2023-02-10T01:14:34;103240.75;;;-5.07;100.00
57050;BME280;42935;50.966;16.992;2023-02-10T01:17:46;103246.31;;;-4.94;100.00
57050;BME280;42935;50.966;16.992;2023-02-10T01:20:58;103251.69;;;-5.16;100.00
57050;BME280;42935;50.966;16.992;2023-02-10T01:24:11;103247.02;;;-5.10;100.00
57050;BME280;42935;50.966;16.992;2023-02-10T01:27:24;103246.64;;;-5.14;100.00
57050;BME280;42935;50.966;16.992;2023-02-10T01:30:41;103236.03;;;-5.07;100.00
57050;BME280;42935;50.966;16.992;2023-02-10T01:33:56;103224.34;;;-5.15;100.00
57050;BME280;42935;50.966;16.992;2023-02-10T01:37:07;103225.80;;;-5.11;100.00
57050;BME280;42935;50.966;16.992;2023-02-10T01:40:17;103219.66;;;-5.28;100.00
57050;BME280;42935;50.966;16.992;2023-02-10T01:43:28;103215.45;;;-5.40;100.00
57050;BME280;42935;50.966;16.992;2023-02-10T01:46:37;103224.62;;;-5.33;100.00
57050;BME280;42935;50.966;16.992;2023-02-10T01:49:50;103229.64;;;-5.22;100.00
57050;BME280;42935;50.966;16.992;2023-02-10T01:53:01;103214.45;;;-5.32;100.00
57050;BME280;42935;50.966;16.992;2023-02-10T01:56:10;103218.91;;;-5.34;100.00
57050;BME280;42935;50.966;16.992;2023-02-10T01:59:31;103208.30;;;-5.48;100.00
57050;BME280;42935;50.966;16.992;2023-02-10T02:02:52;103218.66;;;-5.76;100.00
57050;BME280;42935;50.966;16.992;2023-02-10T02:06:00;103220.08;;;-5.81;100.00
57050;BME280;42935;50.966;16.992;2023-02-10T02:09:09;103210.87;;;-5.87;100.00
57050;BME280;42935;50.966;16.992;2023-02-10T02:19:15;103240.32;;;-5.84;100.00
57050;BME280;42935;50.966;16.992;2023-02-10T02:32:33;103263.52;;;-6.17;100.00
57050;BME280;42935;50.966;16.992;2023-02-10T02:35:48;103260.84;;;-6.15;100.00
57050;BME280;42935;50.966;16.992;2023-02-10T02:39:02;103260.30;;;-6.43;100.00
57050;BME280;42935;50.966;16.992;2023-02-10T02:42:19;103231.77;;;-6.58;100.00
57050;BME280;42935;50.966;16.992;2023-02-10T02:59:17;103256.32;;;-6.67;100.00
57050;BME280;42935;50.966;16.992;2023-02-10T03:02:26;103253.14;;;-6.57;100.00
57050;BME280;42935;50.966;16.992;2023-02-10T03:05:38;103250.74;;;-6.55;100.00
57050;BME280;42935;50.966;16.992;2023-02-10T03:08:47;103239.41;;;-6.60;100.00
57050;BME280;42935;50.966;16.992;2023-02-10T03:11:57;103251.27;;;-6.24;100.00
57050;BME280;42935;50.966;16.992;2023-02-10T03:15:08;103235.01;;;-6.19;100.00
57050;BME280;42935;50.966;16.992;2023-02-10T03:18:23;103254.53;;;-5.68;100.00
57050;BME280;42935;50.966;16.992;2023-02-10T03:21:30;103233.05;;;-5.29;100.00
57050;BME280;42935;50.966;16.992;2023-02-10T03:24:41;103242.90;;;-4.80;100.00
57050;BME280;42935;50.966;16.992;2023-02-10T03:27:55;103228.75;;;-4.77;100.00
57050;BME280;42935;50.966;16.992;2023-02-10T03:31:09;103249.06;;;-4.24;98.40
57050;BME280;42935;50.966;16.992;2023-02-10T03:34:23;103250.99;;;-4.18;95.87
57050;BME280;42935;50.966;16.992;2023-02-10T03:37:41;103236.37;;;-4.12;92.51
57050;BME280;42935;50.966;16.992;2023-02-10T03:40:53;103262.54;;;-4.00;92.26
57050;BME280;42935;50.966;16.992;2023-02-10T03:44:14;103267.95;;;-4.11;93.70
57050;BME280;42935;50.966;16.992;2023-02-10T03:47:24;103275.57;;;-4.30;96.28
57050;BME280;42935;50.966;16.992;2023-02-10T03:50:31;103277.73;;;-4.36;97.72
57050;BME280;42935;50.966;16.992;2023-02-10T03:53:38;103276.80;;;-4.42;98.79
57050;BME280;42935;50.966;16.992;2023-02-10T03:56:52;103259.13;;;-4.55;98.86
57050;BME280;42935;50.966;16.992;2023-02-10T04:00:07;103252.52;;;-4.63;99.51
57050;BME280;42935;50.966;16.992;2023-02-10T04:03:18;103278.47;;;-4.54;99.97
57050;BME280;42935;50.966;16.992;2023-02-10T04:06:28;103267.16;;;-4.65;100.00
57050;BME280;42935;50.966;16.992;2023-02-10T04:09:38;103268.80;;;-4.64;99.82
57050;BME280;42935;50.966;16.992;2023-02-10T04:12:48;103266.43;;;-4.76;100.00
57050;BME280;42935;50.966;16.992;2023-02-10T04:16:04;103273.80;;;-4.86;100.00
57050;BME280;42935;50.966;16.992;2023-02-10T04:19:18;103265.38;;;-4.93;100.00
57050;BME280;42935;50.966;16.992;2023-02-10T04:22:31;103265.41;;;-4.98;100.00
57050;BME280;42935;50.966;16.992;2023-02-10T04:25:42;103248.76;;;-5.14;100.00
57050;BME280;42935;50.966;16.992;2023-02-10T04:28:55;103284.29;;;-4.77;100.00
57050;BME280;42935;50.966;16.992;2023-02-10T04:32:05;103286.56;;;-4.79;100.00
57050;BME280;42935;50.966;16.992;2023-02-10T04:35:19;103290.55;;;-4.86;100.00
57050;BME280;42935;50.966;16.992;2023-02-10T04:38:32;103283.51;;;-5.02;100.00
57050;BME280;42935;50.966;16.992;2023-02-10T04:41:46;103266.42;;;-4.90;100.00
57050;BME280;42935;50.966;16.992;2023-02-10T04:45:00;103272.70;;;-4.90;100.00
57050;BME280;42935;50.966;16.992;2023-02-10T04:48:13;103294.51;;;-4.82;100.00
57050;BME280;42935;50.966;16.992;2023-02-10T04:51:33;103281.96;;;-4.97;100.00
57050;BME280;42935;50.966;16.992;2023-02-10T04:54:44;103292.34;;;-5.04;100.00
57050;BME280;42935;50.966;16.992;2023-02-10T04:57:59;103299.73;;;-5.14;100.00
57050;BME280;42935;50.966;16.992;2023-02-10T05:01:17;103288.66;;;-5.27;100.00
57050;BME280;42935;50.966;16.992;2023-02-10T05:04:33;103287.43;;;-5.22;100.00
57050;BME280;42935;50.966;16.992;2023-02-10T05:08:17;103305.29;;;-5.26;100.00
57050;BME280;42935;50.966;16.992;2023-02-10T05:11:42;103306.99;;;-5.33;100.00
57050;BME280;42935;50.966;16.992;2023-02-10T05:14:52;103304.64;;;-5.35;100.00
57050;BME280;42935;50.966;16.992;2023-02-10T05:18:03;103302.59;;;-5.44;100.00
57050;BME280;42935;50.966;16.992;2023-02-10T05:21:15;103300.32;;;-5.49;100.00
57050;BME280;42935;50.966;16.992;2023-02-10T05:24:18;103292.70;;;-5.59;100.00
57050;BME280;42935;50.966;16.992;2023-02-10T05:27:21;103310.11;;;-5.41;100.00
57050;BME280;42935;50.966;16.992;2023-02-10T05:30:28;103305.93;;;-5.63;100.00
57050;BME280;42935;50.966;16.992;2023-02-10T05:33:32;103314.99;;;-5.74;100.00
57050;BME280;42935;50.966;16.992;2023-02-10T05:36:44;103322.96;;;-5.75;100.00
57050;BME280;42935;50.966;16.992;2023-02-10T05:39:50;103320.85;;;-5.83;100.00
57050;BME280;42935;50.966;16.992;2023-02-10T05:42:54;103246.75;;;-6.18;100.00
57050;BME280;42935;50.966;16.992;2023-02-10T05:45:58;103320.75;;;-5.83;100.00
57050;BME280;42935;50.966;16.992;2023-02-10T05:49:01;103321.73;;;-5.72;100.00
57050;BME280;42935;50.966;16.992;2023-02-10T05:52:05;103324.43;;;-5.72;100.00
57050;BME280;42935;50.966;16.992;2023-02-10T05:55:11;103323.42;;;-5.68;100.00
57050;BME280;42935;50.966;16.992;2023-02-10T05:58:16;103315.52;;;-5.63;100.00
57050;BME280;42935;50.966;16.992;2023-02-10T06:01:20;103319.48;;;-5.48;100.00
57050;BME280;42935;50.966;16.992;2023-02-10T06:04:24;103330.32;;;-5.30;100.00
57050;BME280;42935;50.966;16.992;2023-02-10T06:07:27;103333.08;;;-5.14;100.00
57050;BME280;42935;50.966;16.992;2023-02-10T06:10:30;103341.14;;;-5.12;100.00
57050;BME280;42935;50.966;16.992;2023-02-10T06:13:36;103346.59;;;-4.90;100.00
57050;BME280;42935;50.966;16.992;2023-02-10T06:16:40;103345.07;;;-4.42;100.00
57050;BME280;42935;50.966;16.992;2023-02-10T06:19:45;103347.09;;;-4.23;100.00
57050;BME280;42935;50.966;16.992;2023-02-10T06:22:51;103344.32;;;-4.09;100.00
57050;BME280;42935;50.966;16.992;2023-02-10T06:25:57;103339.10;;;-4.14;100.00
57050;BME280;42935;50.966;16.992;2023-02-10T06:29:01;103344.45;;;-3.96;100.00
57050;BME280;42935;50.966;16.992;2023-02-10T06:32:36;103351.30;;;-3.92;100.00
57050;BME280;42935;50.966;16.992;2023-02-10T06:35:42;103355.08;;;-3.83;100.00
57050;BME280;42935;50.966;16.992;2023-02-10T06:39:29;103342.38;;;-3.63;100.00
57050;BME280;42935;50.966;16.992;2023-02-10T06:42:34;103353.34;;;-3.41;100.00
57050;BME280;42935;50.966;16.992;2023-02-10T06:45:38;103379.45;;;-3.06;92.55
57050;BME280;42935;50.966;16.992;2023-02-10T06:48:44;103376.86;;;-2.88;88.75
57050;BME280;42935;50.966;16.992;2023-02-10T06:51:49;103369.95;;;-2.86;87.84
57050;BME280;42935;50.966;16.992;2023-02-10T06:54:54;103369.37;;;-2.76;86.77
57050;BME280;42935;50.966;16.992;2023-02-10T06:58:03;103376.22;;;-2.68;86.78
57050;BME280;42935;50.966;16.992;2023-02-10T07:01:17;103367.43;;;-2.68;85.96
57050;BME280;42935;50.966;16.992;2023-02-10T07:04:31;103384.98;;;-2.55;85.49
57050;BME280;42935;50.966;16.992;2023-02-10T07:07:38;103387.00;;;-2.45;84.95
57050;BME280;42935;50.966;16.992;2023-02-10T07:10:44;103383.72;;;-2.38;84.38
57050;BME280;42935;50.966;16.992;2023-02-10T07:13:50;103386.12;;;-2.33;83.59
57050;BME280;42935;50.966;16.992;2023-02-10T07:17:05;103384.34;;;-2.24;81.85
57050;BME280;42935;50.966;16.992;2023-02-10T07:20:11;103389.11;;;-2.17;81.05
57050;BME280;42935;50.966;16.992;2023-02-10T07:23:25;103387.11;;;-2.08;80.06
57050;BME280;42935;50.966;16.992;2023-02-10T07:26:35;103387.91;;;-1.99;78.84
57050;BME280;42935;50.966;16.992;2023-02-10T07:29:47;103383.52;;;-2.07;79.94
57050;BME280;42935;50.966;16.992;2023-02-10T07:32:54;103397.70;;;-1.98;80.28
57050;BME280;42935;50.966;16.992;2023-02-10T07:36:08;103402.44;;;-1.97;79.94
57050;BME280;42935;50.966;16.992;2023-02-10T07:39:22;103402.00;;;-1.90;79.94
57050;BME280;42935;50.966;16.992;2023-02-10T07:42:35;103386.77;;;-1.89;80.67
57050;BME280;42935;50.966;16.992;2023-02-10T07:45:41;103395.24;;;-1.82;80.09
57050;BME280;42935;50.966;16.992;2023-02-10T07:48:53;103400.04;;;-1.78;80.63
57050;BME280;42935;50.966;16.992;2023-02-10T07:51:56;103385.56;;;-1.89;80.36
57050;BME280;42935;50.966;16.992;2023-02-10T07:55:02;103406.38;;;-1.76;80.72
57050;BME280;42935;50.966;16.992;2023-02-10T07:58:16;103406.02;;;-1.70;80.64
57050;BME280;42935;50.966;16.992;2023-02-10T08:01:25;103409.80;;;-1.66;79.86
57050;BME280;42935;50.966;16.992;2023-02-10T08:04:40;103394.55;;;-1.71;80.30
57050;BME280;42935;50.966;16.992;2023-02-10T08:08:01;103410.55;;;-1.59;79.68
57050;BME280;42935;50.966;16.992;2023-02-10T08:11:09;103396.13;;;-1.61;79.88
57050;BME280;42935;50.966;16.992;2023-02-10T08:14:21;103393.48;;;-1.61;79.57
57050;BME280;42935;50.966;16.992;2023-02-10T08:17:39;103383.51;;;-1.69;80.21
57050;BME280;42935;50.966;16.992;2023-02-10T08:20:44;103411.28;;;-1.43;80.29
57050;BME280;42935;50.966;16.992;2023-02-10T08:23:56;103388.26;;;-1.43;79.82
57050;BME280;42935;50.966;16.992;2023-02-10T08:27:09;103398.57;;;-1.28;79.80
57050;BME280;42935;50.966;16.992;2023-02-10T08:30:18;103396.63;;;-1.26;80.01
57050;BME280;42935;50.966;16.992;2023-02-10T08:33:29;103397.00;;;-1.20;80.08
57050;BME280;42935;50.966;16.992;2023-02-10T08:36:35;103384.33;;;-1.16;80.33
57050;BME280;42935;50.966;16.992;2023-02-10T08:39:46;103383.42;;;-1.10;80.06
57050;BME280;42935;50.966;16.992;2023-02-10T08:42:57;103395.09;;;-1.02;81.00
57050;BME280;42935;50.966;16.992;2023-02-10T08:46:10;103401.60;;;-0.99;80.54
57050;BME280;42935;50.966;16.992;2023-02-10T08:49:13;103396.25;;;-0.99;80.68
57050;BME280;42935;50.966;16.992;2023-02-10T08:52:21;103398.18;;;-0.95;80.97
57050;BME280;42935;50.966;16.992;2023-02-10T08:55:27;103407.36;;;-0.85;81.18
57050;BME280;42935;50.966;16.992;2023-02-10T08:58:37;103397.53;;;-0.91;82.07
57050;BME280;42935;50.966;16.992;2023-02-10T09:01:47;103403.99;;;-0.79;82.16
57050;BME280;42935;50.966;16.992;2023-02-10T09:05:03;103416.95;;;-0.67;82.77
57050;BME280;42935;50.966;16.992;2023-02-10T09:08:08;103400.76;;;-0.66;83.61
57050;BME280;42935;50.966;16.992;2023-02-10T09:11:20;103405.90;;;-0.64;84.69
57050;BME280;42935;50.966;16.992;2023-02-10T09:14:33;103409.81;;;-0.61;86.28
57050;BME280;42935;50.966;16.992;2023-02-10T09:17:48;103409.75;;;-0.62;85.85
57050;BME280;42935;50.966;16.992;2023-02-10T09:20:57;103413.60;;;-0.49;85.81
57050;BME280;42935;50.966;16.992;2023-02-10T09:24:16;103412.24;;;-0.32;86.22
57050;BME280;42935;50.966;16.992;2023-02-10T09:27:25;103410.39;;;-0.26;86.57
57050;BME280;42935;50.966;16.992;2023-02-10T09:30:34;103420.36;;;-0.18;85.75
57050;BME280;42935;50.966;16.992;2023-02-10T09:33:41;103418.98;;;-0.15;85.72
57050;BME280;42935;50.966;16.992;2023-02-10T09:36:46;103418.23;;;-0.16;86.36
57050;BME280;42935;50.966;16.992;2023-02-10T09:40:20;103421.58;;;-0.11;86.75
57050;BME280;42935;50.966;16.992;2023-02-10T09:53:28;103446.38;;;0.12;90.73
57050;BME280;42935;50.966;16.992;2023-02-10T09:56:38;103442.23;;;0.12;92.12
57050;BME280;42935;50.966;16.992;2023-02-10T09:59:43;103433.66;;;0.29;93.93
57050;BME280;42935;50.966;16.992;2023-02-10T10:02:56;103435.33;;;0.44;94.45
57050;BME280;42935;50.966;16.992;2023-02-10T10:06:12;103440.13;;;0.62;96.25
57050;BME280;42935;50.966;16.992;2023-02-10T10:12:36;103451.69;;;0.76;100.00
57050;BME280;42935;50.966;16.992;2023-02-10T10:19:15;103456.60;;;0.77;100.00
57050;BME280;42935;50.966;16.992;2023-02-10T10:25:56;103433.34;;;0.77;100.00
57050;BME280;42935;50.966;16.992;2023-02-10T10:32:43;103423.44;;;0.98;100.00
57050;BME280;42935;50.966;16.992;2023-02-10T10:36:01;103435.03;;;0.98;100.00
57050;BME280;42935;50.966;16.992;2023-02-10T10:42:44;103432.45;;;1.16;99.88
57050;BME280;42935;50.966;16.992;2023-02-10T10:46:06;103436.56;;;1.33;98.62
57050;BME280;42935;50.966;16.992;2023-02-10T10:49:25;103428.95;;;1.16;97.06
57050;BME280;42935;50.966;16.992;2023-02-10T10:52:36;103412.98;;;1.00;97.27
57050;BME280;42935;50.966;16.992;2023-02-10T10:55:56;103423.66;;;1.34;99.08
57050;BME280;42935;50.966;16.992;2023-02-10T10:59:18;103421.47;;;1.57;96.94
57050;BME280;42935;50.966;16.992;2023-02-10T11:02:35;103419.85;;;1.64;95.34
57050;BME280;42935;50.966;16.992;2023-02-10T11:05:57;103427.61;;;1.59;94.47
57050;BME280;42935;50.966;16.992;2023-02-10T11:09:22;103421.24;;;1.66;94.29
57050;BME280;42935;50.966;16.992;2023-02-10T11:12:40;103420.81;;;1.66;93.52
57050;BME280;42935;50.966;16.992;2023-02-10T11:19:24;103407.57;;;1.71;93.09
57050;BME280;42935;50.966;16.992;2023-02-10T11:22:54;103397.80;;;1.78;95.54
57050;BME280;42935;50.966;16.992;2023-02-10T11:29:30;103383.95;;;1.79;94.75
57050;BME280;42935;50.966;16.992;2023-02-10T11:32:46;103398.01;;;1.79;93.37
57050;BME280;42935;50.966;16.992;2023-02-10T11:36:05;103388.63;;;1.70;92.03
57050;BME280;42935;50.966;16.992;2023-02-10T11:39:33;103377.09;;;1.68;91.14
57050;BME280;42935;50.966;16.992;2023-02-10T11:42:56;103366.73;;;1.84;92.13
57050;BME280;42935;50.966;16.992;2023-02-10T11:49:35;103390.30;;;1.93;91.18
57050;BME280;42935;50.966;16.992;2023-02-10T11:52:45;103386.98;;;2.11;92.87
57050;BME280;42935;50.966;16.992;2023-02-10T11:59:43;103392.93;;;1.90;91.50
57050;BME280;42935;50.966;16.992;2023-02-10T12:06:36;103388.60;;;1.81;90.68
57050;BME280;42935;50.966;16.992;2023-02-10T12:10:08;103391.58;;;1.89;91.91
57050;BME280;42935;50.966;16.992;2023-02-10T12:13:25;103379.78;;;1.76;90.86
57050;BME280;42935;50.966;16.992;2023-02-10T12:23:34;103372.34;;;1.98;87.86
57050;BME280;42935;50.966;16.992;2023-02-10T12:26:59;103385.48;;;2.02;88.29
57050;BME280;42935;50.966;16.992;2023-02-10T12:33:40;103383.55;;;2.21;87.79
57050;BME280;42935;50.966;16.992;2023-02-10T12:43:52;103389.41;;;2.22;87.41
57050;BME280;42935;50.966;16.992;2023-02-10T12:47:20;103384.22;;;2.21;88.57
57050;BME280;42935;50.966;16.992;2023-02-10T12:54:02;103375.00;;;2.41;88.40
57050;BME280;42935;50.966;16.992;2023-02-10T13:00:41;103374.48;;;2.44;88.83
57050;BME280;42935;50.966;16.992;2023-02-10T13:04:14;103358.30;;;2.39;88.68
57050;BME280;42935;50.966;16.992;2023-02-10T13:17:38;103362.16;;;2.49;88.36
57050;BME280;42935;50.966;16.992;2023-02-10T13:34:48;103373.59;;;2.82;89.58
57050;BME280;42935;50.966;16.992;2023-02-10T13:37:59;103374.37;;;2.65;90.26
57050;BME280;42935;50.966;16.992;2023-02-10T13:45:04;103382.77;;;2.49;93.72
57050;BME280;42935;50.966;16.992;2023-02-10T13:48:21;103376.99;;;2.38;95.37
57050;BME280;42935;50.966;16.992;2023-02-10T13:51:58;103391.42;;;2.49;95.79
57050;BME280;42935;50.966;16.992;2023-02-10T13:58:32;103379.95;;;2.46;95.24
57050;BME280;42935;50.966;16.992;2023-02-10T14:01:48;103381.55;;;2.55;97.10
57050;BME280;42935;50.966;16.992;2023-02-10T14:08:36;103398.09;;;2.60;96.50
57050;BME280;42935;50.966;16.992;2023-02-10T14:11:48;103397.09;;;2.56;97.27
57050;BME280;42935;50.966;16.992;2023-02-10T14:15:18;103387.67;;;2.41;98.08
57050;BME280;42935;50.966;16.992;2023-02-10T14:18:36;103386.70;;;2.32;99.56
57050;BME280;42935;50.966;16.992;2023-02-10T14:21:52;103342.25;;;2.13;98.60
57050;BME280;42935;50.966;16.992;2023-02-10T14:28:22;103395.31;;;2.29;98.97
57050;BME280;42935;50.966;16.992;2023-02-10T14:31:37;103410.44;;;2.39;100.00
57050;BME280;42935;50.966;16.992;2023-02-10T14:34:58;103400.18;;;2.35;99.40
57050;BME280;42935;50.966;16.992;2023-02-10T14:38:18;103405.65;;;2.41;99.37
57050;BME280;42935;50.966;16.992;2023-02-10T14:41:29;103408.44;;;2.39;99.98
57050;BME280;42935;50.966;16.992;2023-02-10T14:44:43;103402.65;;;2.37;99.64
57050;BME280;42935;50.966;16.992;2023-02-10T14:47:57;103391.75;;;2.30;99.24
57050;BME280;42935;50.966;16.992;2023-02-10T14:51:19;103396.39;;;2.27;100.00
57050;BME280;42935;50.966;16.992;2023-02-10T14:54:37;103405.52;;;2.26;100.00
57050;BME280;42935;50.966;16.992;2023-02-10T14:57:51;103409.96;;;2.22;100.00
57050;BME280;42935;50.966;16.992;2023-02-10T15:01:25;103411.74;;;2.25;100.00
57050;BME280;42935;50.966;16.992;2023-02-10T15:04:39;103399.28;;;2.04;100.00
57050;BME280;42935;50.966;16.992;2023-02-10T15:07:50;103406.23;;;2.15;99.96
57050;BME280;42935;50.966;16.992;2023-02-10T15:10:59;103406.88;;;2.09;98.88
57050;BME280;42935;50.966;16.992;2023-02-10T15:14:22;103420.52;;;2.15;98.33
57050;BME280;42935;50.966;16.992;2023-02-10T15:17:45;103419.18;;;2.13;97.66
57050;BME280;42935;50.966;16.992;2023-02-10T15:20:58;103408.09;;;2.06;94.19
57050;BME280;42935;50.966;16.992;2023-02-10T15:27:38;103424.09;;;1.98;94.87
57050;BME280;42935;50.966;16.992;2023-02-10T15:37:32;103423.26;;;1.77;93.71
57050;BME280;42935;50.966;16.992;2023-02-10T15:47:22;103420.02;;;1.45;94.75
57050;BME280;42935;50.966;16.992;2023-02-10T15:50:37;103432.75;;;1.51;95.29
57050;BME280;42935;50.966;16.992;2023-02-10T15:53:47;103423.44;;;1.36;96.13
57050;BME280;42935;50.966;16.992;2023-02-10T15:56:57;103438.94;;;1.35;98.36
57050;BME280;42935;50.966;16.992;2023-02-10T16:00:18;103438.52;;;1.30;99.94
57050;BME280;42935;50.966;16.992;2023-02-10T16:03:35;103423.48;;;1.19;100.00
57050;BME280;42935;50.966;16.992;2023-02-10T16:06:50;103437.85;;;1.19;100.00
57050;BME280;42935;50.966;16.992;2023-02-10T16:10:01;103441.87;;;1.16;100.00
57050;BME280;42935;50.966;16.992;2023-02-10T16:13:15;103440.95;;;1.14;100.00
57050;BME280;42935;50.966;16.992;2023-02-10T16:16:29;103441.03;;;1.08;100.00
57050;BME280;42935;50.966;16.992;2023-02-10T16:19:41;103448.77;;;1.02;100.00
57050;BME280;42935;50.966;16.992;2023-02-10T16:22:49;103443.63;;;0.94;100.00
57050;BME280;42935;50.966;16.992;2023-02-10T16:25:57;103457.18;;;0.96;100.00
57050;BME280;42935;50.966;16.992;2023-02-10T16:29:12;103465.53;;;0.92;100.00
57050;BME280;42935;50.966;16.992;2023-02-10T16:32:31;103464.83;;;0.85;100.00
57050;BME280;42935;50.966;16.992;2023-02-10T16:35:45;103465.06;;;0.75;100.00
57050;BME280;42935;50.966;16.992;2023-02-10T16:38:51;103467.43;;;0.70;100.00
57050;BME280;42935;50.966;16.992;2023-02-10T16:42:04;103455.79;;;0.62;100.00
57050;BME280;42935;50.966;16.992;2023-02-10T16:45:11;103456.69;;;0.65;100.00
57050;BME280;42935;50.966;16.992;2023-02-10T16:48:24;103438.77;;;0.49;100.00
57050;BME280;42935;50.966;16.992;2023-02-10T16:51:38;103451.86;;;0.60;100.00
57050;BME280;42935;50.966;16.992;2023-02-10T16:54:50;103449.06;;;0.61;100.00
57050;BME280;42935;50.966;16.992;2023-02-10T16:57:56;103457.72;;;0.66;100.00
57050;BME280;42935;50.966;16.992;2023-02-10T17:01:04;103460.45;;;0.64;100.00
57050;BME280;42935;50.966;16.992;2023-02-10T17:04:12;103456.90;;;0.70;100.00
57050;BME280;42935;50.966;16.992;2023-02-10T17:07:30;103459.59;;;0.67;100.00
57050;BME280;42935;50.966;16.992;2023-02-10T17:10:38;103445.36;;;0.55;100.00
57050;BME280;42935;50.966;16.992;2023-02-10T17:13:47;103455.75;;;0.59;100.00
57050;BME280;42935;50.966;16.992;2023-02-10T17:17:01;103448.00;;;0.49;100.00
57050;BME280;42935;50.966;16.992;2023-02-10T17:20:18;103462.77;;;0.62;100.00
57050;BME280;42935;50.966;16.992;2023-02-10T17:23:32;103452.41;;;0.51;100.00
57050;BME280;42935;50.966;16.992;2023-02-10T17:26:44;103464.50;;;0.50;100.00
57050;BME280;42935;50.966;16.992;2023-02-10T17:30:04;103459.88;;;0.46;100.00
57050;BME280;42935;50.966;16.992;2023-02-10T17:33:25;103453.78;;;0.45;100.00
57050;BME280;42935;50.966;16.992;2023-02-10T17:36:36;103470.14;;;0.52;100.00
57050;BME280;42935;50.966;16.992;2023-02-10T17:39:49;103474.65;;;0.45;100.00
57050;BME280;42935;50.966;16.992;2023-02-10T17:43:03;103456.04;;;0.42;100.00
57050;BME280;42935;50.966;16.992;2023-02-10T17:46:14;103464.22;;;0.42;100.00
57050;BME280;42935;50.966;16.992;2023-02-10T17:49:23;103447.02;;;0.29;100.00
57050;BME280;42935;50.966;16.992;2023-02-10T17:52:40;103451.86;;;0.12;100.00
57050;BME280;42935;50.966;16.992;2023-02-10T17:55:50;103458.12;;;0.08;100.00
57050;BME280;42935;50.966;16.992;2023-02-10T17:59:10;103469.10;;;0.13;100.00
57050;BME280;42935;50.966;16.992;2023-02-10T18:02:27;103469.29;;;0.08;100.00
57050;BME280;42935;50.966;16.992;2023-02-10T18:05:41;103456.48;;;0.06;100.00
57050;BME280;42935;50.966;16.992;2023-02-10T18:08:54;103465.55;;;0.16;100.00
57050;BME280;42935;50.966;16.992;2023-02-10T18:12:08;103432.69;;;-0.27;100.00
57050;BME280;42935;50.966;16.992;2023-02-10T18:15:32;103481.71;;;-0.19;100.00
57050;BME280;42935;50.966;16.992;2023-02-10T18:18:39;103476.61;;;-0.26;100.00
57050;BME280;42935;50.966;16.992;2023-02-10T18:21:55;103474.40;;;-0.33;100.00
57050;BME280;42935;50.966;16.992;2023-02-10T18:25:06;103476.16;;;-0.40;100.00
57050;BME280;42935;50.966;16.992;2023-02-10T18:28:22;103467.40;;;-0.48;100.00
57050;BME280;42935;50.966;16.992;2023-02-10T18:31:39;103481.77;;;-0.34;100.00
57050;BME280;42935;50.966;16.992;2023-02-10T18:34:48;103466.55;;;-0.43;100.00
57050;BME280;42935;50.966;16.992;2023-02-10T18:38:08;103475.73;;;-0.37;100.00
57050;BME280;42935;50.966;16.992;2023-02-10T18:41:27;103458.66;;;-0.51;100.00
57050;BME280;42935;50.966;16.992;2023-02-10T18:44:44;103465.99;;;-0.50;100.00
57050;BME280;42935;50.966;16.992;2023-02-10T18:48:02;103474.30;;;-0.58;100.00
57050;BME280;42935;50.966;16.992;2023-02-10T18:51:19;103478.53;;;-0.60;100.00
57050;BME280;42935;50.966;16.992;2023-02-10T18:54:31;103479.80;;;-0.59;100.00
57050;BME280;42935;50.966;16.992;2023-02-10T18:57:46;103480.56;;;-0.62;100.00
57050;BME280;42935;50.966;16.992;2023-02-10T19:01:06;103479.63;;;-0.65;100.00
57050;BME280;42935;50.966;16.992;2023-02-10T19:04:20;103477.38;;;-0.66;100.00
57050;BME280;42935;50.966;16.992;2023-02-10T19:07:30;103481.46;;;-0.66;100.00
57050;BME280;42935;50.966;16.992;2023-02-10T19:10:42;103475.02;;;-0.73;100.00